Terminal Aerodrome Forecast
Issued by NWS

Home | Current Version | Previous Version | Text Only | Print | Product List | Glossary On
Versions: 1 2 3 4 5 6 7 8 9 10 11 12 13
354
FTUS43 KGRR 271952 AAA
TAFLAN
TAF AMD
KLAN 271952Z 2720/2818 26019G27KT P6SM OVC035
      TEMPO 2722/2801 OVC025
     FM280100 24014G20KT P6SM BKN035
     FM281600 21010KT P6SM BKN070=

USA.gov is the U.S. government's official web portal to all federal, state and local government web resources and services.